Time;durP1;ratioP1;P1;durP2;ratioP2;P2;SDS_P1;SDS_P2;PMS_P1;PMS_P2;Temp;Humidity;BMP_temperature;BMP_pressure;BME280_temperature;BME280_humidity;BME280_pressure;Samples;Min_cycle;Max_cycle;Signal;HPM_P1;HPM_P2
2021/08/27 00:02:22;;;;;;;11.20;4.30;;;18.30;99.90;;;18.72;64.61;101814.78;5094836;28;20091;-71
2021/08/27 00:04:52;;;;;;;7.72;4.20;;;18.20;99.90;;;18.74;64.69;101807.59;5113540;28;20043;-71
2021/08/27 00:07:20;;;;;;;10.88;3.70;;;18.20;99.90;;;18.69;64.95;101811.31;5113234;28;20043;-71
2021/08/27 00:09:49;;;;;;;12.35;3.65;;;18.20;99.90;;;18.66;65.00;101803.34;5113179;28;20043;-70
2021/08/27 00:12:18;;;;;;;11.50;4.05;;;18.20;99.90;;;18.64;65.01;101811.41;5094895;28;20134;-71
2021/08/27 00:14:47;;;;;;;8.10;3.50;;;18.20;99.90;;;18.60;65.21;101800.81;5112903;28;20044;-70
2021/08/27 00:17:15;;;;;;;8.27;3.58;;;18.10;99.90;;;18.57;65.27;101799.06;5113081;28;20036;-71
2021/08/27 00:19:44;;;;;;;7.28;3.63;;;18.10;99.90;;;18.55;65.20;101795.53;5112687;28;20044;-71
2021/08/27 00:22:13;;;;;;;9.77;4.18;;;18.10;99.90;;;18.56;65.43;101797.28;5112984;28;20040;-71
2021/08/27 00:24:42;;;;;;;9.57;4.00;;;18.10;99.90;;;18.46;65.51;101782.34;5112864;28;20078;-71
2021/08/27 00:27:10;;;;;;;11.45;3.75;;;18.00;99.90;;;18.55;65.61;101800.91;5113170;28;20035;-71
2021/08/27 00:29:38;;;;;;;13.32;4.35;;;18.00;99.90;;;18.56;65.66;101797.28;5112714;28;20047;-70
2021/08/27 00:32:07;;;;;;;12.70;3.72;;;18.10;99.90;;;18.58;65.71;101798.13;5112575;28;20047;-71
2021/08/27 00:34:36;;;;;;;7.28;3.67;;;18.10;99.90;;;18.59;66.08;101790.97;5094465;28;20050;-71
2021/08/27 00:37:05;;;;;;;12.43;3.95;;;18.10;99.90;;;18.65;66.12;101791.75;5112906;28;20058;-70
2021/08/27 00:39:36;;;;;;;9.43;3.53;;;18.10;99.90;;;18.65;66.15;101798.88;5112679;28;20075;-71
2021/08/27 00:42:04;;;;;;;9.98;3.60;;;18.20;99.90;;;18.66;66.23;101795.31;5094488;28;20116;-70
2021/08/27 00:44:34;;;;;;;14.85;4.30;;;18.20;99.90;;;18.63;66.29;101793.56;5112502;28;20061;-71
2021/08/27 00:47:02;;;;;;;9.73;3.78;;;18.20;99.90;;;18.68;66.55;101802.38;5112525;28;20487;-70
2021/08/27 00:49:31;;;;;;;10.63;4.18;;;18.20;99.90;;;18.70;66.95;101805.00;5113329;28;20069;-70
2021/08/27 00:52:00;;;;;;;8.25;3.80;;;18.20;99.90;;;18.69;67.99;101796.13;5113022;28;20039;-71
2021/08/27 00:54:29;;;;;;;14.80;4.38;;;18.20;99.90;;;18.73;68.54;101802.28;5112440;28;20059;-71
2021/08/27 00:56:59;;;;;;;7.90;4.30;;;18.30;99.90;;;18.68;69.38;101797.00;5112682;28;20101;-71
2021/08/27 00:59:28;;;;;;;10.60;3.83;;;18.20;99.90;;;18.68;69.55;101798.81;5112326;28;20098;-71
2021/08/27 01:01:57;;;;;;;15.48;4.43;;;18.30;99.90;;;18.82;69.31;101796.69;5112622;28;20622;-71
2021/08/27 01:04:25;;;;;;;10.18;3.75;;;18.40;99.90;;;18.87;68.88;101792.13;5113508;28;20043;-71
2021/08/27 01:06:59;;;;;;;12.73;4.25;;;18.40;99.90;;;18.85;68.73;101784.09;5116599;28;20092;-71
2021/08/27 01:09:38;;;;;;;13.20;4.57;;;18.40;99.90;;;19.02;68.40;101789.06;5116375;28;20036;-71
2021/08/27 01:12:15;;;;;;;8.75;4.05;;;18.60;99.90;;;19.00;68.26;101790.91;5116280;28;20055;-70
2021/08/27 01:14:50;;;;;;;8.82;4.00;;;18.60;99.90;;;19.03;68.21;101789.97;5116292;28;20120;-70
2021/08/27 01:17:23;;;;;;;8.75;3.92;;;18.60;99.90;;;19.03;68.72;101789.97;5116325;28;20047;-71
2021/08/27 01:20:28;;;;;;;8.18;3.83;;;18.60;99.90;;;19.05;68.78;101788.13;5116104;28;20043;-71
2021/08/27 01:23:24;;;;;;;10.40;3.80;;;18.60;99.90;;;19.07;69.51;101778.22;5116002;28;20056;-71
2021/08/27 01:25:56;;;;;;;10.45;4.15;;;18.60;99.90;;;18.47;68.88;101654.59;5116167;28;20055;-71
2021/08/27 01:28:28;;;;;;;11.05;4.35;;;18.70;99.90;;;19.15;68.71;101787.84;5116113;28;20077;-71
2021/08/27 01:31:19;;;;;;;9.77;4.25;;;18.70;99.90;;;19.00;68.54;101798.94;5116202;28;20050;-71
2021/08/27 01:34:00;;;;;;;11.88;4.00;;;18.60;99.90;;;19.03;68.71;101776.56;5115890;28;20062;-71
2021/08/27 01:36:33;;;;;;;11.63;4.32;;;18.60;99.90;;;19.09;69.09;101782.63;5097740;28;20082;-71
2021/08/27 01:39:03;;;;;;;8.80;3.78;;;18.60;99.90;;;19.12;68.74;101784.34;5097782;28;20187;-71
2021/08/27 01:41:34;;;;;;;11.90;4.47;;;18.60;99.90;;;19.10;68.49;101784.41;5116412;28;20448;-71
2021/08/27 01:44:06;;;;;;;12.05;4.10;;;18.70;99.90;;;19.04;69.15;101783.66;5116133;28;20052;-71
2021/08/27 01:46:38;;;;;;;11.93;4.30;;;18.60;99.90;;;19.02;68.99;101785.50;5116292;28;20067;-71
2021/08/27 01:49:08;;;;;;;11.50;4.68;;;18.60;99.90;;;18.97;69.21;101790.97;5116195;28;20512;-71
2021/08/27 01:51:42;;;;;;;12.85;3.80;;;18.50;99.90;;;18.82;69.25;101786.84;5116148;28;20077;-71
2021/08/27 01:54:11;;;;;;;13.73;4.75;;;18.40;99.90;;;18.85;69.17;101792.13;5116462;28;20036;-71
2021/08/27 01:56:41;;;;;;;10.15;4.00;;;18.40;99.90;;;18.84;69.41;101797.53;5116284;28;20040;-71
2021/08/27 01:59:11;;;;;;;14.30;3.90;;;18.40;99.90;;;18.68;69.54;101769.31;5116297;28;20040;-71
2021/08/27 02:01:40;;;;;;;10.40;3.65;;;18.40;99.90;;;18.78;69.45;101801.25;5097917;28;20063;-71
2021/08/27 02:04:13;;;;;;;8.98;3.83;;;18.40;99.90;;;18.77;69.31;101804.88;5115888;28;20383;-71
2021/08/27 02:06:45;;;;;;;11.93;4.20;;;18.30;99.90;;;18.58;69.23;101774.00;5097708;28;20521;-71
2021/08/27 02:09:14;;;;;;;12.60;4.13;;;18.30;99.90;;;18.65;69.46;101797.09;5097876;28;20674;-71
2021/08/27 02:11:43;;;;;;;12.13;4.28;;;18.20;99.90;;;18.62;69.66;101807.88;5115979;28;20447;-70
2021/08/27 02:14:12;;;;;;;11.38;4.20;;;18.20;99.90;;;18.58;69.87;101802.63;5116001;28;20663;-71
2021/08/27 02:16:41;;;;;;;11.93;4.20;;;18.10;99.90;;;18.53;69.80;101801.84;5115785;28;20043;-71
2021/08/27 02:19:10;;;;;;;12.82;4.30;;;18.00;99.90;;;18.58;69.81;101803.50;5115551;28;20123;-71
2021/08/27 02:21:44;;;;;;;14.80;4.72;;;18.00;99.90;;;18.46;70.05;101803.78;5115857;28;20065;-71
2021/08/27 02:24:17;;;;;;;16.52;4.18;;;18.00;99.90;;;18.35;70.24;101795.03;5115653;28;20047;-71
2021/08/27 02:26:47;;;;;;;15.15;3.83;;;17.90;99.90;;;18.25;70.45;101801.53;5115749;28;20368;-71
2021/08/27 02:29:18;;;;;;;12.98;4.28;;;17.80;99.90;;;18.26;70.53;101805.97;5115462;28;20040;-71
2021/08/27 02:31:52;;;;;;;12.23;4.53;;;17.80;99.90;;;18.31;70.42;101806.72;5115455;28;20047;-71
2021/08/27 02:34:23;;;;;;;12.27;3.85;;;17.80;99.90;;;18.29;70.91;101805.03;5115559;28;20047;-70
2021/08/27 02:36:57;;;;;;;14.37;4.47;;;17.80;99.90;;;18.29;70.78;101805.88;5115348;28;20082;-71
2021/08/27 02:39:28;;;;;;;10.18;3.90;;;17.80;99.90;;;18.26;70.62;101807.75;5115178;28;20097;-71
2021/08/27 02:41:58;;;;;;;15.68;4.60;;;17.80;99.90;;;18.17;70.68;101805.28;5115267;28;20555;-71
2021/08/27 02:44:27;;;;;;;10.27;4.78;;;17.80;99.90;;;18.23;70.65;101808.72;5115452;28;20097;-70
2021/08/27 02:46:55;;;;;;;8.77;4.20;;;17.80;99.90;;;18.18;70.68;101799.88;5115580;28;20136;-71
2021/08/27 02:49:24;;;;;;;16.55;4.82;;;17.80;99.90;;;18.20;70.73;101805.19;5115212;28;20047;-71
2021/08/27 02:52:06;;;;;;;13.57;4.57;;;17.70;99.90;;;18.20;70.69;101811.44;5114963;28;20486;-71
2021/08/27 02:54:47;;;;;;;12.27;4.55;;;17.70;99.90;;;18.20;70.71;101803.41;5114966;28;20448;-71
2021/08/27 02:57:15;;;;;;;10.07;4.43;;;17.70;99.90;;;18.20;70.93;101805.19;5115144;28;20040;-71
2021/08/27 02:59:45;;;;;;;10.15;4.53;;;17.80;99.90;;;18.18;71.19;101805.22;5096677;28;20078;-71
2021/08/27 03:02:16;;;;;;;9.75;4.18;;;17.70;99.90;;;18.12;71.40;101797.31;5096719;28;20439;-71
2021/08/27 03:04:54;;;;;;;8.93;3.90;;;17.70;99.90;;;18.15;71.69;101805.31;5114780;28;20092;-71
2021/08/27 03:07:26;;;;;;;9.05;3.95;;;17.70;99.90;;;18.10;72.56;101799.16;5114694;28;20444;-71
2021/08/27 03:10:02;;;;;;;11.48;4.35;;;17.70;99.90;;;17.89;73.12;101775.50;5114786;28;20094;-71
2021/08/27 03:12:42;;;;;;;7.30;4.57;;;17.60;99.90;;;17.99;73.60;101804.75;5114596;28;20097;-71
2021/08/27 03:15:16;;;;;;;11.15;4.13;;;17.60;99.90;;;17.95;73.68;101808.38;5114520;28;20043;-71
2021/08/27 03:17:44;;;;;;;8.15;4.18;;;17.50;99.90;;;17.83;73.35;101800.59;5114445;28;20547;-71
2021/08/27 03:20:20;;;;;;;5.60;3.55;;;17.40;99.90;;;17.66;73.48;101805.38;5114534;28;20389;-71
2021/08/27 03:22:56;;;;;;;5.65;3.70;;;17.30;99.90;;;17.80;73.32;101803.34;5096399;28;20047;-70
2021/08/27 03:25:26;;;;;;;11.48;4.18;;;17.30;99.90;;;17.80;72.96;101803.34;5114332;28;20047;-71
2021/08/27 03:27:59;;;;;;;8.85;3.80;;;17.30;99.90;;;17.86;72.78;101796.97;5114253;28;20057;-71
2021/08/27 03:30:30;;;;;;;10.80;4.18;;;17.40;99.90;;;17.85;72.34;101800.53;5114261;28;20048;-71
2021/08/27 03:33:03;;;;;;;12.02;3.80;;;17.40;99.90;;;17.84;72.31;101805.03;5114231;28;20040;-70
2021/08/27 03:35:33;;;;;;;9.68;4.00;;;17.40;99.90;;;17.85;72.17;101804.13;5114202;28;20486;-71
2021/08/27 03:38:05;;;;;;;7.55;4.00;;;17.40;99.90;;;17.83;71.99;101802.38;5114846;28;20444;-70
2021/08/27 03:40:35;;;;;;;9.68;3.90;;;17.40;99.90;;;17.84;71.65;101798.81;5114260;28;20075;-71
2021/08/27 03:43:04;;;;;;;9.05;3.90;;;17.40;99.90;;;17.84;71.50;101799.69;5114093;28;20110;-71
2021/08/27 03:45:33;;;;;;;11.13;4.28;;;17.40;99.90;;;17.59;71.61;101776.09;5114542;28;20109;-71
2021/08/27 03:48:03;;;;;;;10.90;4.40;;;17.30;99.90;;;17.65;71.76;101794.72;5114479;28;20036;-71
2021/08/27 03:50:31;;;;;;;11.48;4.60;;;17.20;99.90;;;17.69;71.64;101804.44;5114194;28;20134;-71
2021/08/27 03:53:01;;;;;;;12.95;4.10;;;17.20;99.90;;;17.64;71.87;101791.16;5095905;28;20048;-71
2021/08/27 03:55:30;;;;;;;9.77;4.20;;;17.20;99.90;;;17.65;71.53;101808.09;5113805;28;20048;-71
2021/08/27 03:58:01;;;;;;;11.07;4.40;;;17.20;99.90;;;17.56;71.34;101790.41;5114305;28;20077;-71
2021/08/27 04:00:39;;;;;;;14.80;4.65;;;17.20;99.90;;;17.66;71.29;101796.47;5113824;28;20075;-71
2021/08/27 04:03:08;;;;;;;12.50;4.65;;;17.30;99.90;;;17.73;71.46;101814.19;5113961;28;20428;-71
2021/08/27 04:05:37;;;;;;;10.73;3.75;;;17.30;99.90;;;17.70;71.56;101798.16;5113583;28;20077;-71
2021/08/27 04:08:07;;;;;;;13.05;4.38;;;17.30;99.90;;;17.78;71.39;101814.97;5113919;28;20039;-71
2021/08/27 04:10:35;;;;;;;12.43;4.10;;;17.30;99.90;;;17.81;71.49;101812.22;5113976;28;20043;-71
2021/08/27 04:13:04;;;;;;;10.13;4.10;;;17.30;99.90;;;17.74;71.55;101806.13;5095680;28;20297;-71
2021/08/27 04:15:32;;;;;;;9.80;4.50;;;17.30;99.90;;;17.71;71.85;101811.50;5114042;28;20100;-71
2021/08/27 04:18:00;;;;;;;11.88;4.60;;;17.30;99.90;;;17.70;72.10;101811.56;5113766;28;20042;-71
2021/08/27 04:20:29;;;;;;;10.32;4.05;;;17.20;99.90;;;17.66;72.29;101809.84;5113642;28;20043;-71
2021/08/27 04:22:57;;;;;;;10.70;4.25;;;17.20;99.90;;;17.66;72.35;101805.38;5113390;28;20122;-71
2021/08/27 04:25:27;;;;;;;9.00;4.07;;;17.20;99.90;;;17.63;72.39;101808.13;5113400;28;20073;-71
2021/08/27 04:27:55;;;;;;;14.03;4.47;;;17.20;99.90;;;17.64;72.41;101809.88;5095334;28;20521;-71
2021/08/27 04:30:24;;;;;;;9.63;4.50;;;17.20;99.90;;;17.73;72.08;101809.69;5113354;28;20542;-71
2021/08/27 04:32:52;;;;;;;11.57;4.32;;;17.30;99.90;;;17.72;71.99;101804.38;5113331;28;20098;-71
2021/08/27 04:35:21;;;;;;;9.65;4.45;;;17.30;99.90;;;17.70;72.16;101817.78;5095400;28;20441;-71
2021/08/27 04:37:49;;;;;;;9.85;3.95;;;17.30;99.90;;;17.68;72.79;101818.72;5113894;28;20048;-71
2021/08/27 04:40:18;;;;;;;7.60;3.95;;;17.20;99.90;;;17.72;73.50;101820.44;5115896;28;20047;-71
2021/08/27 04:42:48;;;;;;;8.27;3.85;;;17.20;99.90;;;17.38;73.38;101800.53;5117274;28;20047;-70
2021/08/27 04:45:17;;;;;;;8.25;4.00;;;17.10;99.90;;;17.51;73.83;101820.81;5099570;28;20138;-71
2021/08/27 04:47:45;;;;;;;8.27;3.78;;;17.10;99.90;;;17.47;73.63;101822.63;5117373;28;20101;-72
2021/08/27 04:50:14;;;;;;;13.15;3.85;;;17.00;99.90;;;17.46;73.44;101828.88;5117591;28;20052;-72
2021/08/27 04:52:43;;;;;;;12.70;4.22;;;17.00;99.90;;;17.54;73.21;101823.44;5117239;28;20555;-71
2021/08/27 04:55:11;;;;;;;10.07;4.30;;;17.10;99.90;;;17.46;72.73;101801.28;5117503;28;20063;-71
2021/08/27 04:57:41;;;;;;;14.18;5.35;;;17.10;99.90;;;16.08;72.33;101554.19;5117166;28;20101;-71
2021/08/27 05:00:12;;;;;;;10.32;4.35;;;17.20;99.90;;;17.63;72.42;101825.97;5117157;28;20043;-71
2021/08/27 05:02:40;;;;;;;9.60;4.03;;;17.20;99.90;;;17.66;72.15;101828.56;5117025;28;20039;-71
2021/08/27 05:05:11;;;;;;;12.32;4.70;;;17.20;99.90;;;17.68;72.07;101824.97;5117069;28;20044;-71
2021/08/27 05:07:39;;;;;;;11.82;4.22;;;17.20;99.90;;;17.72;72.01;101832.03;5117365;28;20039;-71
2021/08/27 05:10:09;;;;;;;16.30;4.65;;;17.30;99.90;;;17.77;71.91;101830.13;5116927;28;20122;-71
2021/08/27 05:12:38;;;;;;;15.43;4.40;;;17.30;99.90;;;17.60;72.00;101794.78;5117241;28;20077;-71
2021/08/27 05:15:08;;;;;;;11.70;4.32;;;17.40;99.90;;;17.87;72.00;101830.84;5116849;28;20490;-71
2021/08/27 05:17:39;;;;;;;11.23;4.15;;;17.40;99.90;;;17.83;71.71;101808.63;5116867;28;20096;-72
2021/08/27 05:20:09;;;;;;;10.15;4.30;;;17.50;99.90;;;17.75;71.39;101777.56;5117354;28;20070;-71
2021/08/27 05:22:37;;;;;;;11.15;4.53;;;17.50;99.90;;;18.06;71.27;101818.88;5116699;28;20039;-72
2021/08/27 05:25:07;;;;;;;8.48;4.93;;;17.60;99.90;;;18.23;70.82;101829.25;5116516;28;20467;-71
2021/08/27 05:27:37;;;;;;;11.63;4.50;;;17.80;99.90;;;18.28;70.39;101832.72;5116833;28;20050;-72
2021/08/27 05:30:09;;;;;;;11.27;4.43;;;17.80;99.90;;;18.41;70.14;101837.78;5116506;28;20393;-72
2021/08/27 05:32:39;;;;;;;11.25;4.40;;;18.00;99.90;;;18.52;69.82;101842.97;5117091;28;20101;-72
2021/08/27 05:35:09;;;;;;;9.88;4.20;;;18.00;99.90;;;18.62;69.54;101841.84;5116422;28;20047;-72
2021/08/27 05:37:38;;;;;;;14.63;4.35;;;18.10;99.90;;;18.75;69.63;101844.22;5116655;28;20454;-71
2021/08/27 05:40:08;;;;;;;8.38;4.65;;;18.30;99.90;;;18.87;69.75;101845.75;5116085;28;20096;-72
2021/08/27 05:42:36;;;;;;;9.98;4.28;;;18.40;99.90;;;19.00;70.38;101846.34;5097721;28;20094;-72
2021/08/27 05:45:07;;;;;;;7.63;4.00;;;18.50;99.90;;;19.17;70.99;101852.19;5116097;28;20062;-72
2021/08/27 05:47:39;;;;;;;9.25;3.67;;;18.70;99.90;;;19.28;71.11;101845.63;5115589;28;20153;-71
2021/08/27 05:50:08;;;;;;;10.82;4.20;;;18.80;99.90;;;19.32;70.65;101852.72;5115249;28;20122;-71
2021/08/27 05:52:37;;;;;;;11.02;4.68;;;18.90;99.90;;;19.41;70.89;101849.84;5115366;28;20067;-72
2021/08/27 05:55:06;;;;;;;7.90;4.00;;;19.00;99.90;;;19.56;69.77;101851.22;5115389;28;20035;-71
2021/08/27 05:57:35;;;;;;;8.93;3.90;;;19.10;99.90;;;19.63;68.98;101847.47;5115376;28;20569;-72
2021/08/27 06:00:06;;;;;;;9.60;4.07;;;19.20;99.90;;;19.55;68.52;101785.06;5115626;28;20101;-71
2021/08/27 06:02:34;;;;;;;8.05;3.65;;;19.40;99.90;;;20.15;68.21;101855.00;5115582;28;20036;-72
2021/08/27 06:05:05;;;;;;;9.20;4.07;;;19.70;99.90;;;20.44;67.62;101860.47;5115198;28;20035;-72
2021/08/27 06:07:34;;;;;;;7.90;3.72;;;19.90;99.90;;;20.72;66.72;101868.56;5115212;28;20418;-71
2021/08/27 06:10:02;;;;;;;6.45;3.65;;;20.20;99.90;;;20.93;65.87;101867.91;5115591;28;20039;-71
2021/08/27 06:12:31;;;;;;;10.52;3.75;;;20.40;99.90;;;21.13;64.92;101870.91;5115010;28;20035;-72
2021/08/27 06:14:59;;;;;;;11.63;4.65;;;20.60;99.90;;;21.36;63.88;101871.06;5115357;28;20143;-71
2021/08/27 06:17:27;;;;;;;10.57;3.75;;;20.80;99.90;;;21.41;63.63;101850.22;5115284;28;20038;-71
2021/08/27 06:19:56;;;;;;;9.45;4.05;;;21.00;99.90;;;21.25;63.04;101801.41;5115163;28;20051;-71
2021/08/27 06:22:26;;;;;;;10.38;4.00;;;21.20;99.90;;;21.83;61.97;101872.19;5114761;28;20039;-71
2021/08/27 06:24:54;;;;;;;11.70;3.85;;;21.30;99.90;;;21.97;61.00;101875.28;5115087;28;20052;-71
2021/08/27 06:27:23;;;;;;;9.35;3.85;;;21.40;99.90;;;22.10;61.02;101880.19;5114808;28;20069;-72
2021/08/27 06:29:51;;;;;;;9.57;3.83;;;21.50;99.90;;;22.19;60.49;101869.06;5115027;28;20040;-71
2021/08/27 06:32:20;;;;;;;7.30;3.35;;;21.70;99.90;;;22.39;59.23;101871.03;5114926;28;20188;-71
2021/08/27 06:34:48;;;;;;;6.43;3.92;;;21.90;99.90;;;22.50;59.17;101884.97;5114413;28;20115;-71
2021/08/27 06:37:17;;;;;;;8.35;3.67;;;22.00;99.90;;;22.61;59.37;101879.22;5114828;28;20066;-71
2021/08/27 06:39:47;;;;;;;8.82;4.07;;;22.20;99.90;;;22.70;58.59;101882.47;5114754;28;20496;-71
2021/08/27 06:42:15;;;;;;;7.85;3.67;;;22.40;99.90;;;22.59;58.21;101848.72;5114752;28;20105;-71
2021/08/27 06:44:43;;;;;;;7.95;3.78;;;22.40;99.90;;;22.90;57.95;101868.19;5097904;28;20094;-71
2021/08/27 06:47:12;;;;;;;9.40;3.80;;;22.60;99.90;;;23.02;57.98;101889.28;5114492;28;20044;-71
2021/08/27 06:49:40;;;;;;;7.30;3.72;;;22.70;99.90;;;23.10;57.24;101879.94;5114657;28;20043;-71
2021/08/27 06:52:09;;;;;;;7.15;3.60;;;22.80;99.90;;;23.25;56.62;101887.41;5114740;28;20591;-71
2021/08/27 06:54:37;;;;;;;6.72;3.53;;;22.90;99.90;;;23.46;56.39;101885.69;5114471;28;20154;-71
2021/08/27 06:57:07;;;;;;;10.63;3.75;;;23.10;99.90;;;22.91;54.71;101783.56;5114208;28;20035;-71
2021/08/27 06:59:35;;;;;;;6.75;3.80;;;23.20;99.90;;;23.60;54.97;101883.28;5114480;28;20040;-71
2021/08/27 07:02:04;;;;;;;9.48;4.07;;;23.30;99.90;;;23.68;55.16;101874.88;5113099;28;20093;-71
2021/08/27 07:04:34;;;;;;;8.27;3.65;;;23.40;99.90;;;22.07;54.34;101643.09;5114084;28;20121;-71
2021/08/27 07:07:03;;;;;;;8.32;3.42;;;23.50;99.90;;;23.79;53.51;101886.97;5114161;28;20462;-71
2021/08/27 07:09:31;;;;;;;9.57;3.78;;;23.50;99.90;;;23.85;54.12;101897.53;5114442;28;20048;-71
2021/08/27 07:12:00;;;;;;;11.60;3.90;;;23.50;99.90;;;23.85;53.40;101892.13;5113845;28;20525;-68
2021/08/27 07:14:30;;;;;;;8.00;3.65;;;23.60;99.90;;;23.68;52.80;101870.34;5113854;28;20057;-68
2021/08/27 07:16:59;;;;;;;7.55;3.75;;;23.60;99.90;;;23.98;52.86;101904.16;5113816;28;20131;-68
2021/08/27 07:19:27;;;;;;;5.30;3.00;;;23.70;99.90;;;24.01;53.00;101911.25;5095812;28;20048;-68
2021/08/27 07:21:55;;;;;;;5.93;3.40;;;23.70;99.90;;;24.00;52.35;101904.97;5113741;28;20114;-68
2021/08/27 07:24:24;;;;;;;8.27;3.53;;;23.70;99.90;;;23.92;52.72;101879.22;5113614;28;20095;-69
2021/08/27 07:26:52;;;;;;;9.43;3.35;;;23.70;99.90;;;24.15;52.31;101914.28;5113638;28;20573;-68
2021/08/27 07:29:21;;;;;;;11.38;3.45;;;23.80;99.90;;;24.25;52.12;101907.53;5113973;28;20466;-68
2021/08/27 07:31:50;;;;;;;6.65;3.60;;;23.90;99.90;;;24.36;51.55;101905.22;5113734;28;20439;-68
2021/08/27 07:34:19;;;;;;;16.45;3.50;;;24.00;99.90;;;24.18;50.38;101908.72;5114066;28;20112;-68
2021/08/27 07:36:48;;;;;;;7.95;3.60;;;23.90;99.90;;;24.23;50.67;101905.84;5113341;28;20059;-69
2021/08/27 07:39:16;;;;;;;5.30;3.03;;;23.90;99.90;;;23.47;49.56;101779.41;5113165;28;20040;-68
2021/08/27 07:41:44;;;;;;;7.85;3.40;;;23.90;99.90;;;23.92;49.97;101914.38;5113333;28;20104;-69
2021/08/27 07:44:16;;;;;;;7.45;3.60;;;23.70;99.90;;;23.28;51.09;101875.63;5112960;28;20082;-69
2021/08/27 07:46:44;;;;;;;6.38;3.35;;;23.40;99.90;;;23.44;52.55;101913.72;5113209;28;20546;-69
2021/08/27 07:49:14;;;;;;;9.73;3.38;;;23.30;99.90;;;23.61;51.96;101922.91;5113392;28;20039;-69
2021/08/27 07:51:46;;;;;;;8.23;3.47;;;23.30;99.90;;;23.52;52.29;101917.84;5113128;28;20032;-70
2021/08/27 07:54:17;;;;;;;10.52;3.60;;;23.30;99.90;;;23.56;52.17;101924.91;5113465;28;20334;-69
2021/08/27 07:56:46;;;;;;;5.03;3.10;;;23.30;99.90;;;23.42;52.17;101927.31;5112981;28;20116;-68
2021/08/27 07:59:15;;;;;;;6.07;3.90;;;23.20;99.90;;;23.64;52.76;101921.88;5113300;28;20039;-69
2021/08/27 08:01:43;;;;;;;6.50;3.75;;;23.40;99.90;;;23.64;52.56;101936.28;5112975;28;20043;-69
2021/08/27 08:04:14;;;;;;;5.88;3.65;;;23.40;99.90;;;23.48;51.58;101913.53;5113171;28;20046;-68
2021/08/27 08:06:42;;;;;;;6.25;3.72;;;23.30;99.90;;;23.13;51.37;101922.16;5113265;28;20465;-68
2021/08/27 08:09:11;;;;;;;6.68;3.78;;;22.90;99.90;;;23.24;52.34;101928.00;5112944;28;20044;-68
2021/08/27 08:11:40;;;;;;;7.05;4.30;;;23.00;99.90;;;23.21;52.22;101922.69;5112889;28;20089;-68
2021/08/27 08:14:08;;;;;;;7.07;3.80;;;23.00;99.90;;;23.35;51.38;101936.56;5112692;28;20075;-68
2021/08/27 08:16:37;;;;;;;9.25;4.13;;;23.10;99.90;;;23.30;51.31;101935.84;5112969;28;20096;-69
2021/08/27 08:19:05;;;;;;;8.32;4.18;;;23.10;99.90;;;23.25;51.40;101933.34;5113347;28;20040;-68
2021/08/27 08:21:35;;;;;;;7.32;4.38;;;23.10;99.90;;;23.30;50.36;101928.66;5112982;28;20040;-68
2021/08/27 08:24:04;;;;;;;10.98;4.28;;;23.10;99.90;;;23.24;50.65;101928.00;5094812;28;20055;-68
2021/08/27 08:26:33;;;;;;;7.78;4.00;;;23.20;99.90;;;23.32;51.76;101933.13;5113175;28;20120;-68
2021/08/27 08:29:02;;;;;;;8.90;4.45;;;23.10;99.90;;;23.21;51.03;101923.59;5113026;28;20093;-68
2021/08/27 08:31:31;;;;;;;7.22;4.28;;;23.00;99.90;;;23.05;50.59;101937.75;5094988;28;20398;-68
2021/08/27 08:34:00;;;;;;;7.60;4.38;;;22.90;99.90;;;23.00;50.46;101937.94;5113425;28;20043;-69
2021/08/27 08:36:28;;;;;;;11.85;4.43;;;22.80;99.90;;;22.86;51.33;101898.94;5113435;28;20127;-69
2021/08/27 08:38:58;;;;;;;8.45;4.72;;;22.80;99.90;;;23.29;50.87;101940.38;5112898;28;20126;-68
2021/08/27 08:41:27;;;;;;;7.70;4.68;;;23.00;99.90;;;23.27;49.79;101911.66;5094848;28;20483;-68
2021/08/27 08:43:55;;;;;;;9.63;5.13;;;23.20;99.90;;;23.53;50.29;101943.06;5112556;28;20476;-68
2021/08/27 08:46:24;;;;;;;9.80;4.55;;;23.30;99.90;;;23.50;50.50;101944.06;5112315;28;20474;-70
2021/08/27 08:48:54;;;;;;;7.68;4.57;;;23.30;99.90;;;23.45;50.12;101932.56;5112841;28;20429;-70
2021/08/27 08:51:27;;;;;;;9.43;4.68;;;23.30;99.90;;;23.21;50.58;101890.28;5112978;28;20114;-68
2021/08/27 08:53:58;;;;;;;9.75;4.85;;;23.30;99.90;;;23.58;50.85;101950.03;5094689;28;20085;-71
2021/08/27 08:56:26;;;;;;;;;;;23.30;99.90;;;23.44;50.89;101949.69;5113293;28;20069;-71
2021/08/27 08:58:59;;;;;;;8.75;4.72;;;23.20;99.90;;;23.15;50.19;101945.44;5112525;28;19919;-70
2021/08/27 09:01:28;;;;;;;10.15;4.80;;;23.00;99.90;;;22.80;51.38;101899.16;5112512;28;20101;-67
2021/08/27 09:03:56;;;;;;;10.52;4.55;;;22.80;99.90;;;23.07;51.75;101944.00;5112440;28;20039;-69
2021/08/27 09:06:25;;;;;;;11.65;4.68;;;22.80;99.90;;;23.03;52.42;101947.75;5112961;28;20398;-69
2021/08/27 09:08:56;;;;;;;8.93;4.63;;;22.80;99.90;;;22.88;52.59;101903.31;5112617;28;20069;-67
2021/08/27 09:11:27;;;;;;;12.02;5.07;;;22.90;99.90;;;22.68;53.06;101896.94;5094443;28;20082;-68
2021/08/27 09:13:59;;;;;;;12.90;4.75;;;22.70;99.90;;;22.91;53.23;101919.41;5112446;28;20219;-67
2021/08/27 09:16:29;;;;;;;10.85;5.10;;;22.80;99.90;;;22.96;52.32;101949.78;5112446;28;20379;-67
2021/08/27 09:18:58;;;;;;;;;;;22.70;99.90;;;23.10;52.45;101949.25;5112804;28;20044;-67
2021/08/27 09:21:38;;;;;;;12.25;4.93;;;22.90;99.90;;;23.29;52.78;101945.78;5112262;28;19927;-65
2021/08/27 09:24:22;;;;;;;13.57;5.00;;;23.00;99.90;;;23.39;52.37;101945.44;5112474;28;20404;-69
2021/08/27 09:26:55;;;;;;;13.07;4.85;;;23.10;99.90;;;22.74;53.04;101915.59;5115029;28;20048;-68
2021/08/27 09:29:40;;;;;;;10.85;5.05;;;22.80;99.90;;;22.39;53.46;101906.97;5116013;28;20452;-68
2021/08/27 09:32:25;;;;;;;9.93;5.75;;;22.50;99.90;;;22.58;53.68;101944.06;5097866;28;20076;-67
2021/08/27 09:35:07;;;;;;;10.68;5.25;;;22.40;99.90;;;22.71;54.58;101948.06;5115925;28;20059;-67
2021/08/27 09:37:46;;;;;;;17.13;5.40;;;22.40;99.90;;;22.84;54.49;101944.00;5097698;28;20051;-68
2021/08/27 09:40:17;;;;;;;10.35;4.50;;;22.60;99.90;;;22.89;52.93;101944.69;5116222;28;20100;-68
2021/08/27 09:42:49;;;;;;;13.13;5.15;;;22.70;99.90;;;23.27;52.54;101944.06;5116688;28;20138;-68
2021/08/27 09:45:20;;;;;;;10.82;5.07;;;22.90;99.90;;;23.49;51.24;101953.13;5116266;28;20112;-68
2021/08/27 09:48:11;;;;;;;7.35;4.50;;;23.20;99.90;;;23.64;50.17;101948.91;5116272;28;20476;-68
2021/08/27 09:50:43;;;;;;;9.38;4.63;;;23.30;99.90;;;23.80;49.95;101940.09;5112417;28;20125;-68
2021/08/27 09:53:13;;;;;;;9.95;4.07;;;23.50;99.90;;;24.13;49.95;101949.53;5116164;28;20490;-68
2021/08/27 09:55:57;;;;;;;9.68;4.60;;;23.80;99.90;;;24.32;49.55;101943.28;5116397;28;20107;-68
2021/08/27 09:58:27;;;;;;;13.38;4.95;;;24.00;99.90;;;24.55;49.25;101948.56;5116605;28;20043;-68
2021/08/27 10:01:05;;;;;;;9.20;4.70;;;24.30;99.90;;;24.17;48.36;101875.44;5116056;28;20498;-68
2021/08/27 10:03:35;;;;;;;8.05;4.45;;;24.30;99.90;;;24.47;48.47;101920.94;5115775;28;20067;-67
2021/08/27 10:06:04;;;;;;;9.98;4.88;;;24.40;99.90;;;24.58;48.55;101941.19;5115772;28;20074;-68
2021/08/27 10:08:33;;;;;;;11.98;4.75;;;24.40;99.90;;;24.46;49.38;101935.44;5116006;28;20093;-67
2021/08/27 10:11:18;;;;;;;12.63;4.72;;;24.20;99.90;;;24.15;48.99;101955.75;5115751;28;20383;-74
2021/08/27 10:13:48;;;;;;;12.23;4.43;;;23.90;99.90;;;24.39;49.10;101933.97;5115735;28;20087;-68
2021/08/27 10:16:16;;;;;;;10.35;4.55;;;24.10;99.90;;;24.54;48.85;101934.16;5097823;28;20067;-67
2021/08/27 10:18:45;;;;;;;9.50;4.53;;;24.30;99.90;;;24.71;49.65;101925.25;5115866;28;20466;-69
2021/08/27 10:21:13;;;;;;;11.38;4.72;;;24.40;99.90;;;23.96;48.87;101822.25;5097549;28;20048;-69
2021/08/27 10:23:44;;;;;;;9.75;4.20;;;24.40;99.90;;;24.22;48.38;101910.34;5115425;28;20619;-67
2021/08/27 10:26:16;;;;;;;9.93;4.78;;;24.10;99.90;;;24.33;48.08;101924.28;5115433;28;20044;-68